createdAt,value
2023-05-19T00:01:24.903Z,102527.88
2023-05-19T00:03:57.674Z,102528.47
2023-05-19T00:06:26.757Z,102531.16
2023-05-19T00:08:58.813Z,102529.16
2023-05-19T00:11:27.623Z,102536.47
2023-05-19T00:13:56.423Z,102531.63
2023-05-19T00:16:25.465Z,102532.41
2023-05-19T00:18:54.731Z,102529.75
2023-05-19T00:21:22.374Z,102523.16
2023-05-19T00:23:50.098Z,102522.19
2023-05-19T00:26:17.740Z,102525.03
2023-05-19T00:28:55.624Z,102525.03
2023-05-19T00:31:23.425Z,102524.06
2023-05-19T00:33:52.050Z,102514.91
2023-05-19T00:36:21.061Z,102509.53
2023-05-19T00:38:48.618Z,102517.88
2023-05-19T00:41:16.377Z,102518.38
2023-05-19T00:43:43.971Z,102505.97
2023-05-19T00:46:11.828Z,102507.03
2023-05-19T00:48:39.609Z,102503.59
2023-05-19T00:51:07.482Z,102500.56
2023-05-19T00:53:36.618Z,102503.28
2023-05-19T00:56:04.710Z,102508.63
2023-05-19T00:58:33.050Z,102511.34
2023-05-19T01:01:03.468Z,102513.34
2023-05-19T01:03:32.762Z,102506.94
2023-05-19T01:06:04.810Z,102511.25
2023-05-19T01:08:32.973Z,102508.63
2023-05-19T01:11:02.367Z,102498.94
2023-05-19T01:13:30.943Z,102508.75
2023-05-19T01:16:06.654Z,102506.09
2023-05-19T01:18:44.679Z,102510.91
2023-05-19T01:21:51.489Z,102510.00
2023-05-19T01:24:54.870Z,102502.75
2023-05-19T01:27:46.841Z,102511.97
2023-05-19T01:30:27.810Z,102510.81
2023-05-19T01:32:59.211Z,102507.84
2023-05-19T01:35:27.800Z,102507.63
2023-05-19T01:37:57.392Z,102511.13
2023-05-19T01:40:27.180Z,102506.63
2023-05-19T01:42:57.840Z,102510.31
2023-05-19T01:45:30.018Z,102513.47
2023-05-19T01:48:00.228Z,102515.16
2023-05-19T01:50:28.192Z,102519.56
2023-05-19T01:52:56.212Z,102516.53
2023-05-19T01:55:24.072Z,102521.06
2023-05-19T01:58:01.511Z,102521.75
2023-05-19T02:00:44.355Z,102526.41
2023-05-19T02:03:24.146Z,102526.78
2023-05-19T02:05:59.629Z,102525.13
2023-05-19T02:08:31.639Z,102531.72
2023-05-19T02:11:03.883Z,102526.47
2023-05-19T02:13:37.679Z,102530.03
2023-05-19T02:16:08.083Z,102525.78
2023-05-19T02:18:36.202Z,102519.25
2023-05-19T02:21:03.824Z,102527.53
2023-05-19T02:23:31.926Z,102523.44
2023-05-19T02:25:59.577Z,102519.38
2023-05-19T02:28:28.400Z,102513.75
2023-05-19T02:30:56.088Z,102512.41
2023-05-19T02:33:27.439Z,102506.25
2023-05-19T02:35:55.068Z,102509.75
2023-05-19T02:38:22.710Z,102508.44
2023-05-19T02:40:52.529Z,102505.47
2023-05-19T02:43:20.309Z,102507.75
2023-05-19T02:45:47.862Z,102502.75
2023-05-19T02:48:15.480Z,102502.06
2023-05-19T02:50:44.436Z,102509.88
2023-05-19T02:53:12.020Z,102506.00
2023-05-19T02:55:39.616Z,102505.41
2023-05-19T02:58:07.398Z,102509.34
2023-05-19T03:00:35.081Z,102500.44
2023-05-19T03:03:03.169Z,102502.97
2023-05-19T03:05:31.093Z,102494.81
2023-05-19T03:08:00.114Z,102492.75
2023-05-19T03:10:27.936Z,102496.13
2023-05-19T03:12:55.509Z,102491.66
2023-05-19T03:15:23.479Z,102501.75
2023-05-19T03:17:51.923Z,102502.06
2023-05-19T03:20:19.851Z,102492.56
2023-05-19T03:22:47.567Z,102491.00
2023-05-19T03:25:17.016Z,102491.13
2023-05-19T03:27:44.679Z,102485.19
2023-05-19T03:30:13.561Z,102483.81
2023-05-19T03:32:54.257Z,102483.81
2023-05-19T03:35:22.220Z,102490.22
2023-05-19T03:37:50.111Z,102488.53
2023-05-19T03:40:19.665Z,102497.19
2023-05-19T03:42:48.779Z,102485.94
2023-05-19T03:45:17.319Z,102493.31
2023-05-19T03:47:48.670Z,102495.13
2023-05-19T03:50:31.634Z,102487.00
2023-05-19T03:53:12.860Z,102500.41
2023-05-19T03:55:44.348Z,102489.44
2023-05-19T03:58:14.527Z,102497.81
2023-05-19T04:00:42.163Z,102505.34
2023-05-19T04:03:09.847Z,102500.56
2023-05-19T04:05:37.579Z,102501.91
2023-05-19T04:08:05.549Z,102504.44
2023-05-19T04:10:33.225Z,102508.13
2023-05-19T04:13:02.241Z,102506.84
2023-05-19T04:15:30.133Z,102506.00
2023-05-19T04:17:57.917Z,102506.00
2023-05-19T04:20:25.516Z,102509.88
2023-05-19T04:22:53.102Z,102516.09
2023-05-19T04:25:20.995Z,102508.31
2023-05-19T04:27:49.409Z,102508.59
2023-05-19T04:30:22.326Z,102509.03
2023-05-19T04:32:50.928Z,102507.53
2023-05-19T04:35:19.321Z,102512.84
2023-05-19T04:37:48.369Z,102507.06
2023-05-19T04:40:21.046Z,102501.97
2023-05-19T04:42:49.691Z,102504.31
2023-05-19T04:45:19.122Z,102505.28
2023-05-19T04:47:50.225Z,102499.28
2023-05-19T04:50:17.847Z,102500.53
2023-05-19T04:52:46.404Z,102507.88
2023-05-19T04:55:15.334Z,102504.41
2023-05-19T04:57:43.383Z,102495.31
2023-05-19T05:00:14.292Z,102511.00
2023-05-19T05:02:58.436Z,102508.69
2023-05-19T05:05:28.480Z,102511.81
2023-05-19T05:07:56.402Z,102516.69
2023-05-19T05:10:26.316Z,102509.22
2023-05-19T05:12:55.465Z,102513.59
2023-05-19T05:15:24.183Z,102512.91
2023-05-19T05:17:52.774Z,102511.59
2023-05-19T05:20:24.018Z,102509.28
2023-05-19T05:22:52.358Z,102500.97
2023-05-19T05:25:21.839Z,102508.00
2023-05-19T05:27:50.662Z,102507.66
2023-05-19T05:30:18.987Z,102506.59
2023-05-19T05:32:48.153Z,102512.78
2023-05-19T05:35:39.214Z,102506.31
2023-05-19T05:38:08.651Z,102508.00
2023-05-19T05:40:37.759Z,102516.53
2023-05-19T05:43:06.222Z,102516.34
2023-05-19T05:45:38.343Z,102515.91
2023-05-19T05:48:07.552Z,102515.59
2023-05-19T05:50:35.955Z,102513.44
2023-05-19T05:53:07.454Z,102512.47
2023-05-19T05:55:38.156Z,102521.66
2023-05-19T05:58:10.976Z,102518.84
2023-05-19T06:00:38.913Z,102517.66
2023-05-19T06:03:06.699Z,102521.31
2023-05-19T06:05:34.461Z,102520.84
2023-05-19T06:08:02.630Z,102517.00
2023-05-19T06:10:32.561Z,102523.53
2023-05-19T06:13:00.440Z,102508.34
2023-05-19T06:15:28.292Z,102521.88
2023-05-19T06:18:10.496Z,102514.56
2023-05-19T06:20:38.106Z,102517.88
2023-05-19T06:23:05.706Z,102514.53
2023-05-19T06:25:34.852Z,102523.91
2023-05-19T06:28:03.464Z,102523.88
2023-05-19T06:30:31.451Z,102519.00
2023-05-19T06:33:11.852Z,102520.13
2023-05-19T06:35:39.510Z,102508.69
2023-05-19T06:38:07.234Z,102508.47
2023-05-19T06:40:37.135Z,102509.34
2023-05-19T06:43:04.861Z,102509.75
2023-05-19T06:45:52.418Z,102508.34
2023-05-19T06:48:20.002Z,102509.97
2023-05-19T06:50:48.698Z,102507.31
2023-05-19T06:53:18.249Z,102507.94
2023-05-19T06:55:58.768Z,102516.63
2023-05-19T06:58:29.359Z,102513.56
2023-05-19T07:00:57.777Z,102520.72
2023-05-19T07:03:30.983Z,102520.16
2023-05-19T07:05:59.843Z,102513.72
2023-05-19T07:08:29.080Z,102520.00
2023-05-19T07:10:59.349Z,102522.09
2023-05-19T07:13:27.665Z,102524.50
2023-05-19T07:15:56.592Z,102516.84
2023-05-19T07:18:25.397Z,102519.78
2023-05-19T07:20:53.670Z,102516.50
2023-05-19T07:23:21.764Z,102516.03
2023-05-19T07:25:49.330Z,102520.31
2023-05-19T07:28:18.293Z,102521.31
2023-05-19T07:30:45.851Z,102514.69
2023-05-19T07:33:13.644Z,102510.56
2023-05-19T07:35:41.308Z,102515.09
2023-05-19T07:38:08.929Z,102515.25
2023-05-19T07:40:36.465Z,102517.13
2023-05-19T07:43:04.037Z,102520.97
2023-05-19T07:45:33.049Z,102523.53
2023-05-19T07:48:00.766Z,102522.16
2023-05-19T07:50:28.506Z,102515.88
2023-05-19T07:52:56.433Z,102516.50
2023-05-19T07:55:24.212Z,102510.13
2023-05-19T07:57:51.794Z,102507.63
2023-05-19T08:00:19.690Z,102508.19
2023-05-19T08:02:48.674Z,102502.22
2023-05-19T08:05:16.301Z,102499.94
2023-05-19T08:07:43.927Z,102498.53
2023-05-19T08:10:11.637Z,102494.59
2023-05-19T08:12:39.249Z,102503.47
2023-05-19T08:15:07.911Z,102492.75
2023-05-19T08:17:35.779Z,102501.41
2023-05-19T08:20:06.228Z,102492.78
2023-05-19T08:22:33.781Z,102501.41
2023-05-19T08:25:01.389Z,102486.09
2023-05-19T08:27:29.015Z,102490.41
2023-05-19T08:29:57.243Z,102495.84
2023-05-19T08:32:25.477Z,102497.56
2023-05-19T08:34:53.337Z,102490.91
2023-05-19T08:37:22.373Z,102494.84
2023-05-19T08:39:49.968Z,102491.06
2023-05-19T08:42:17.612Z,102487.50
2023-05-19T08:44:45.268Z,102487.34
2023-05-19T08:47:13.844Z,102487.53
2023-05-19T08:49:46.205Z,102480.91
2023-05-19T08:52:26.185Z,102475.50
2023-05-19T08:55:00.881Z,102473.88
2023-05-19T08:57:29.353Z,102478.44
2023-05-19T08:59:57.993Z,102475.09
2023-05-19T09:02:26.203Z,102474.50
2023-05-19T09:04:54.688Z,102475.50
2023-05-19T09:07:25.576Z,102470.50
2023-05-19T09:09:53.205Z,102463.47
2023-05-19T09:12:21.583Z,102473.03
2023-05-19T09:14:49.428Z,102463.84
2023-05-19T09:17:18.569Z,102471.56
2023-05-19T09:19:48.074Z,102464.31
2023-05-19T09:22:19.041Z,102465.75
2023-05-19T09:24:48.078Z,102472.16
2023-05-19T09:27:22.064Z,102469.88
2023-05-19T09:29:49.698Z,102466.78
2023-05-19T09:32:26.025Z,102463.66
2023-05-19T09:34:54.512Z,102465.94
2023-05-19T09:37:24.034Z,102454.53
2023-05-19T09:39:53.122Z,102462.97
2023-05-19T09:42:26.646Z,102453.47
2023-05-19T09:45:01.518Z,102460.63
2023-05-19T09:47:29.284Z,102459.56
2023-05-19T09:49:58.510Z,102454.25
2023-05-19T09:52:27.325Z,102450.97
2023-05-19T09:54:57.551Z,102450.31
2023-05-19T09:57:26.939Z,102455.78
2023-05-19T09:59:56.817Z,102455.59
2023-05-19T10:02:26.930Z,102448.03
2023-05-19T10:04:56.105Z,102441.50
2023-05-19T10:07:25.049Z,102443.59
2023-05-19T10:09:56.591Z,102444.00
2023-05-19T10:12:27.456Z,102444.00
2023-05-19T10:14:55.862Z,102434.25
2023-05-19T10:17:24.805Z,102436.50
2023-05-19T10:19:54.675Z,102446.41
2023-05-19T10:22:22.514Z,102430.59
2023-05-19T10:24:50.093Z,102426.16
2023-05-19T10:27:18.914Z,102424.44
2023-05-19T10:29:50.701Z,102415.47
2023-05-19T10:32:23.900Z,102426.81
2023-05-19T10:35:25.012Z,102423.03
2023-05-19T10:37:59.978Z,102411.09
2023-05-19T10:40:29.643Z,102417.81
2023-05-19T10:43:21.933Z,102420.41
2023-05-19T10:45:54.603Z,102414.03
2023-05-19T10:48:22.939Z,102416.78
2023-05-19T10:50:54.399Z,102416.16
2023-05-19T10:53:21.999Z,102414.59
2023-05-19T10:55:55.929Z,102405.97
2023-05-19T10:58:39.118Z,102412.28
2023-05-19T11:01:15.186Z,102403.34
2023-05-19T11:03:48.018Z,102404.59
2023-05-19T11:06:25.632Z,102407.81
2023-05-19T11:09:01.925Z,102406.84
2023-05-19T11:11:48.099Z,102401.16
2023-05-19T11:14:17.678Z,102397.69
2023-05-19T11:16:49.311Z,102406.72
2023-05-19T11:19:21.395Z,102403.97
2023-05-19T11:21:50.415Z,102403.88
2023-05-19T11:24:37.684Z,102387.88
2023-05-19T11:27:22.236Z,102389.88
2023-05-19T11:29:51.148Z,102387.16
2023-05-19T11:32:21.706Z,102391.59
2023-05-19T11:34:50.359Z,102389.47
2023-05-19T11:37:17.985Z,102374.69
2023-05-19T11:39:47.516Z,102380.94
2023-05-19T11:42:15.157Z,102385.47
2023-05-19T11:44:46.037Z,102374.53
2023-05-19T11:47:14.138Z,102377.00
2023-05-19T11:49:45.913Z,102376.56
2023-05-19T11:52:13.782Z,102378.78
2023-05-19T11:54:42.122Z,102385.16
2023-05-19T11:57:10.475Z,102374.56
2023-05-19T11:59:40.590Z,102375.09
2023-05-19T12:02:17.772Z,102375.03
2023-05-19T12:04:46.982Z,102374.91
2023-05-19T12:07:17.534Z,102371.13
2023-05-19T12:09:46.457Z,102375.97
2023-05-19T12:12:15.797Z,102376.44
2023-05-19T12:14:43.718Z,102370.16
2023-05-19T12:17:13.084Z,102369.59
2023-05-19T12:19:42.152Z,102365.94
2023-05-19T12:22:11.678Z,102356.00
2023-05-19T12:24:40.623Z,102360.28
2023-05-19T12:27:12.350Z,102356.59
2023-05-19T12:29:40.069Z,102369.22
2023-05-19T12:32:09.173Z,102354.34
2023-05-19T12:34:38.370Z,102353.31
2023-05-19T12:37:06.386Z,102350.69
2023-05-19T12:39:35.572Z,102357.91
2023-05-19T12:42:03.978Z,102339.81
2023-05-19T12:44:32.091Z,102340.66
2023-05-19T12:47:00.545Z,102337.50
2023-05-19T12:49:28.152Z,102344.13
2023-05-19T12:51:55.786Z,102335.59
2023-05-19T12:54:23.520Z,102336.78
2023-05-19T12:56:53.857Z,102331.81
2023-05-19T12:59:37.323Z,102333.00
2023-05-19T13:02:06.372Z,102327.22
2023-05-19T13:04:34.149Z,102327.69
2023-05-19T13:07:01.826Z,102321.91
2023-05-19T13:09:29.372Z,102323.19
2023-05-19T13:11:58.655Z,102317.44
2023-05-19T13:14:26.289Z,102322.13
2023-05-19T13:16:53.954Z,102318.50
2023-05-19T13:19:25.270Z,102323.28
2023-05-19T13:21:53.462Z,102319.44
2023-05-19T13:24:21.250Z,102324.50
2023-05-19T13:26:48.976Z,102323.91
2023-05-19T13:29:17.912Z,102317.47
2023-05-19T13:31:46.256Z,102320.84
2023-05-19T13:34:13.986Z,102320.03
2023-05-19T13:36:42.794Z,102324.78
2023-05-19T13:39:10.491Z,102321.81
2023-05-19T13:41:38.333Z,102322.38
2023-05-19T13:44:06.126Z,102315.59
2023-05-19T13:46:44.764Z,102307.16
2023-05-19T13:49:14.095Z,102318.13
2023-05-19T13:51:43.639Z,102311.16
2023-05-19T13:54:11.425Z,102304.91
2023-05-19T13:56:39.082Z,102315.66
2023-05-19T13:59:06.671Z,102310.31
2023-05-19T14:01:35.688Z,102318.84
2023-05-19T14:04:03.426Z,102312.78
2023-05-19T14:06:31.064Z,102315.59
2023-05-19T14:08:58.656Z,102306.22
2023-05-19T14:11:26.223Z,102301.09
2023-05-19T14:13:53.818Z,102308.78
2023-05-19T14:16:22.203Z,102304.53
2023-05-19T14:18:51.301Z,102302.31
2023-05-19T14:21:19.232Z,102302.13
2023-05-19T14:23:46.858Z,102298.94
2023-05-19T14:26:14.429Z,102301.50
2023-05-19T14:28:42.053Z,102304.38
2023-05-19T14:31:12.201Z,102304.13
2023-05-19T14:33:39.946Z,102294.78
2023-05-19T14:36:09.397Z,102298.19
2023-05-19T14:38:37.612Z,102302.16
2023-05-19T14:41:05.537Z,102301.69
2023-05-19T14:43:33.201Z,102296.22
2023-05-19T14:46:00.917Z,102301.53
2023-05-19T14:48:28.509Z,102298.19
2023-05-19T14:50:56.061Z,102302.88
2023-05-19T14:53:25.000Z,102302.81
2023-05-19T14:55:52.607Z,102300.03
2023-05-19T14:58:29.037Z,102302.72
2023-05-19T15:00:58.651Z,102301.06
2023-05-19T15:03:26.312Z,102302.16
2023-05-19T15:05:53.896Z,102303.56
2023-05-19T15:08:21.470Z,102295.06
2023-05-19T15:10:51.344Z,102302.44
2023-05-19T15:13:21.281Z,102292.59
2023-05-19T15:15:48.827Z,102292.22
2023-05-19T15:18:18.567Z,102295.22
2023-05-19T15:20:46.589Z,102284.84
2023-05-19T15:23:14.167Z,102289.38
2023-05-19T15:25:41.805Z,102290.66
2023-05-19T15:28:10.702Z,102287.19
2023-05-19T15:30:38.498Z,102289.81
2023-05-19T15:33:06.339Z,102291.75
2023-05-19T15:35:33.959Z,102287.41
2023-05-19T15:38:05.974Z,102280.94
2023-05-19T15:40:34.120Z,102285.66
2023-05-19T15:43:02.117Z,102276.84
2023-05-19T15:45:31.162Z,102279.72
2023-05-19T15:47:58.700Z,102278.19
2023-05-19T15:50:26.642Z,102286.47
2023-05-19T15:52:54.204Z,102286.19
2023-05-19T15:55:22.083Z,102287.53
2023-05-19T15:57:49.624Z,102298.28
2023-05-19T16:00:17.355Z,102289.31
2023-05-19T16:02:46.501Z,102295.94
2023-05-19T16:05:14.161Z,102281.97
2023-05-19T16:07:42.698Z,102289.19
2023-05-19T16:10:10.755Z,102286.53
2023-05-19T16:12:38.486Z,102286.66
2023-05-19T16:15:07.040Z,102293.78
2023-05-19T16:17:34.988Z,102284.81
2023-05-19T16:20:04.355Z,102289.34
2023-05-19T16:22:31.954Z,102292.88
2023-05-19T16:24:59.520Z,102285.19
2023-05-19T16:27:27.244Z,102290.34
2023-05-19T16:29:56.135Z,102281.00
2023-05-19T16:32:23.804Z,102282.44
2023-05-19T16:34:51.405Z,102288.00
2023-05-19T16:37:20.255Z,102278.59
2023-05-19T16:39:48.324Z,102285.19
2023-05-19T16:42:15.932Z,102285.34
2023-05-19T16:44:43.540Z,102278.25
2023-05-19T16:47:11.118Z,102291.91
2023-05-19T16:49:40.377Z,102278.41
2023-05-19T16:52:07.998Z,102284.53
2023-05-19T16:54:37.038Z,102285.75
2023-05-19T16:57:04.876Z,102284.53
2023-05-19T16:59:32.499Z,102283.31
2023-05-19T17:02:00.129Z,102287.47
2023-05-19T17:04:30.007Z,102280.16
2023-05-19T17:06:58.479Z,102278.94
2023-05-19T17:09:26.340Z,102270.72
2023-05-19T17:11:55.620Z,102277.31
2023-05-19T17:14:23.369Z,102279.97
2023-05-19T17:16:52.341Z,102268.91
2023-05-19T17:19:20.041Z,102272.59
2023-05-19T17:21:47.682Z,102282.34
2023-05-19T17:24:15.547Z,102281.06
2023-05-19T17:26:43.108Z,102279.25
2023-05-19T17:29:12.450Z,102274.34
2023-05-19T17:31:40.188Z,102278.25
2023-05-19T17:34:07.947Z,102274.00
2023-05-19T17:36:35.559Z,102278.38
2023-05-19T17:39:03.531Z,102270.53
2023-05-19T17:41:31.212Z,102274.00
2023-05-19T17:43:58.762Z,102276.38
2023-05-19T17:46:30.137Z,102280.22
2023-05-19T17:48:57.831Z,102284.69
2023-05-19T17:51:25.853Z,102283.50
2023-05-19T17:53:53.955Z,102288.44
2023-05-19T17:56:22.355Z,102277.88
2023-05-19T17:58:50.523Z,102281.84
2023-05-19T18:01:20.353Z,102283.19
2023-05-19T18:03:50.117Z,102289.66
2023-05-19T18:06:18.758Z,102288.06
2023-05-19T18:08:50.414Z,102289.78
2023-05-19T18:11:18.660Z,102293.53
2023-05-19T18:13:46.254Z,102291.31
2023-05-19T18:16:13.886Z,102291.75
2023-05-19T18:18:43.481Z,102292.47
2023-05-19T18:21:14.244Z,102289.81
2023-05-19T18:23:42.188Z,102300.06
2023-05-19T18:26:09.776Z,102291.63
2023-05-19T18:28:37.319Z,102295.66
2023-05-19T18:31:07.511Z,102299.44
2023-05-19T18:33:35.191Z,102299.66
2023-05-19T18:36:02.816Z,102302.69
2023-05-19T18:38:31.744Z,102299.34
2023-05-19T18:41:00.723Z,102301.97
2023-05-19T18:43:29.993Z,102305.13
2023-05-19T18:45:58.235Z,102293.88
2023-05-19T18:48:26.884Z,102303.91
2023-05-19T18:50:54.566Z,102307.00
2023-05-19T18:53:22.689Z,102313.13
2023-05-19T18:55:51.678Z,102315.03
2023-05-19T18:58:19.573Z,102315.69
2023-05-19T19:00:47.371Z,102314.47
2023-05-19T19:03:15.016Z,102310.09
2023-05-19T19:05:42.739Z,102316.75
2023-05-19T19:08:10.492Z,102322.16
2023-05-19T19:10:40.416Z,102322.38
2023-05-19T19:13:09.350Z,102320.94
2023-05-19T19:15:39.630Z,102316.19
2023-05-19T19:18:08.196Z,102317.41
2023-05-19T19:20:36.136Z,102320.31
2023-05-19T19:23:06.335Z,102320.94
2023-05-19T19:25:34.007Z,102324.19
2023-05-19T19:28:02.305Z,102327.75
2023-05-19T19:30:31.609Z,102329.59
2023-05-19T19:33:00.018Z,102331.88
2023-05-19T19:35:27.622Z,102342.88
2023-05-19T19:37:55.213Z,102339.16
2023-05-19T19:40:23.011Z,102337.28
2023-05-19T19:42:50.725Z,102344.31
2023-05-19T19:45:19.399Z,102343.69
2023-05-19T19:47:48.397Z,102349.66
2023-05-19T19:50:16.426Z,102342.16
2023-05-19T19:52:44.158Z,102350.47
2023-05-19T19:55:11.840Z,102345.47
2023-05-19T19:57:39.442Z,102351.28
2023-05-19T20:00:09.027Z,102344.00
2023-05-19T20:02:45.538Z,102360.38
2023-05-19T20:05:24.625Z,102348.75
2023-05-19T20:07:52.250Z,102357.25
2023-05-19T20:10:20.039Z,102361.53
2023-05-19T20:12:48.076Z,102356.13
2023-05-19T20:15:16.262Z,102358.59
2023-05-19T20:17:43.895Z,102366.06
2023-05-19T20:20:12.827Z,102363.50
2023-05-19T20:22:41.828Z,102372.41
2023-05-19T20:25:10.897Z,102377.94
2023-05-19T20:27:38.523Z,102381.00
2023-05-19T20:30:07.303Z,102381.09
2023-05-19T20:32:35.028Z,102382.38
2023-05-19T20:35:02.592Z,102384.22
2023-05-19T20:37:30.472Z,102381.41
2023-05-19T20:39:59.469Z,102382.63
2023-05-19T20:42:27.050Z,102386.72
2023-05-19T20:44:54.795Z,102375.91
2023-05-19T20:47:22.413Z,102380.66
2023-05-19T20:49:49.972Z,102383.00
2023-05-19T20:52:18.239Z,102383.28
2023-05-19T20:54:46.244Z,102377.25
2023-05-19T20:57:15.456Z,102388.38
2023-05-19T20:59:43.050Z,102394.59
2023-05-19T21:02:11.604Z,102395.88
2023-05-19T21:04:39.695Z,102392.28
2023-05-19T21:07:07.485Z,102395.19
2023-05-19T21:09:35.101Z,102394.91
2023-05-19T21:12:02.926Z,102402.31
2023-05-19T21:14:31.819Z,102394.00
2023-05-19T21:16:59.491Z,102400.28
2023-05-19T21:19:27.379Z,102394.22
2023-05-19T21:21:54.998Z,102402.31
2023-05-19T21:24:22.601Z,102395.19
2023-05-19T21:26:51.302Z,102394.28
2023-05-19T21:29:19.056Z,102396.06
2023-05-19T21:31:47.948Z,102402.69
2023-05-19T21:34:15.597Z,102399.66
2023-05-19T21:36:43.186Z,102404.31
2023-05-19T21:39:10.986Z,102403.84
2023-05-19T21:41:38.707Z,102401.81
2023-05-19T21:44:06.285Z,102398.66
2023-05-19T21:46:33.988Z,102405.50
2023-05-19T21:49:02.965Z,102407.56
2023-05-19T21:51:31.502Z,102408.47
2023-05-19T21:53:59.459Z,102403.00
2023-05-19T21:56:27.430Z,102408.28
2023-05-19T21:58:55.066Z,102410.78
2023-05-19T22:01:22.820Z,102410.41
2023-05-19T22:03:50.558Z,102412.44
2023-05-19T22:06:19.625Z,102410.50
2023-05-19T22:08:47.168Z,102415.84
2023-05-19T22:11:17.897Z,102411.75
2023-05-19T22:13:45.762Z,102410.94
2023-05-19T22:16:13.320Z,102401.88
2023-05-19T22:18:41.229Z,102405.94
2023-05-19T22:21:09.052Z,102406.75
2023-05-19T22:23:37.971Z,102402.59
2023-05-19T22:26:05.938Z,102408.31
2023-05-19T22:28:33.600Z,102400.34
2023-05-19T22:31:01.218Z,102395.00
2023-05-19T22:33:28.820Z,102401.66
2023-05-19T22:35:56.545Z,102397.97
2023-05-19T22:38:24.119Z,102400.47
2023-05-19T22:40:53.208Z,102405.59
2023-05-19T22:43:20.743Z,102404.13
2023-05-19T22:45:49.252Z,102406.16
2023-05-19T22:48:17.164Z,102405.50
2023-05-19T22:50:44.819Z,102400.78
2023-05-19T22:53:12.404Z,102414.56
2023-05-19T22:55:40.050Z,102415.06
2023-05-19T22:58:08.930Z,102415.25
2023-05-19T23:00:36.501Z,102414.88
2023-05-19T23:03:04.169Z,102415.25
2023-05-19T23:05:31.973Z,102418.94
2023-05-19T23:07:59.685Z,102411.25
2023-05-19T23:10:27.424Z,102410.72
2023-05-19T23:12:55.113Z,102413.00
2023-05-19T23:15:24.073Z,102419.28
2023-05-19T23:17:51.761Z,102420.31
2023-05-19T23:20:19.515Z,102423.34
2023-05-19T23:22:47.068Z,102422.50
2023-05-19T23:25:14.682Z,102418.34
2023-05-19T23:27:42.288Z,102426.19
2023-05-19T23:30:10.423Z,102423.34
2023-05-19T23:32:40.797Z,102422.31
2023-05-19T23:35:12.851Z,102420.13
2023-05-19T23:37:40.691Z,102418.44
2023-05-19T23:40:09.503Z,102417.16
2023-05-19T23:42:37.497Z,102416.31
2023-05-19T23:45:05.817Z,102422.03
2023-05-19T23:47:33.559Z,102414.72
2023-05-19T23:50:02.492Z,102419.22
2023-05-19T23:52:30.183Z,102418.47
2023-05-19T23:54:57.754Z,102411.41
2023-05-19T23:57:25.617Z,102419.28
2023-05-19T23:59:53.253Z,102409.16
